createdAt,value
2017-11-20T00:01:01.026Z,1003.40
2017-11-20T00:02:07.340Z,1003.55
2017-11-20T00:03:13.333Z,1003.58
2017-11-20T00:04:20.004Z,1003.61
2017-11-20T00:05:25.631Z,1003.34
2017-11-20T00:06:31.726Z,1003.21
2017-11-20T00:07:37.993Z,1003.28
2017-11-20T00:08:44.066Z,1003.14
2017-11-20T00:09:50.422Z,1003.30
2017-11-20T00:10:56.445Z,1003.44
2017-11-20T00:12:02.947Z,1003.35
2017-11-20T00:13:08.574Z,1003.45
2017-11-20T00:14:14.730Z,1003.51
2017-11-20T00:15:20.857Z,1003.36
2017-11-20T00:16:26.973Z,1003.39
2017-11-20T00:17:33.696Z,1003.28
2017-11-20T00:18:39.748Z,1003.55
2017-11-20T00:19:45.661Z,1003.53
2017-11-20T00:20:51.534Z,1003.35
2017-11-20T00:21:57.754Z,1003.33
2017-11-20T00:23:03.842Z,1003.30
2017-11-20T00:24:09.934Z,1003.25
2017-11-20T00:25:16.148Z,1003.42
2017-11-20T00:26:22.211Z,1003.39
2017-11-20T00:27:28.345Z,1003.25
2017-11-20T00:28:34.484Z,1003.35
2017-11-20T00:29:40.623Z,1003.27
2017-11-20T00:30:46.744Z,1003.49
2017-11-20T00:31:52.886Z,1003.31
2017-11-20T00:32:59.161Z,1003.51
2017-11-20T00:34:05.240Z,1003.36
2017-11-20T00:35:11.288Z,1003.37
2017-11-20T00:36:17.400Z,1003.17
2017-11-20T00:37:23.531Z,1003.31
2017-11-20T00:38:29.661Z,1003.27
2017-11-20T00:39:35.820Z,1003.31
2017-11-20T00:40:41.925Z,1003.30
2017-11-20T00:41:48.051Z,1003.32
2017-11-20T00:42:54.244Z,1003.40
2017-11-20T00:44:00.471Z,1003.41
2017-11-20T00:45:06.473Z,1003.40
2017-11-20T00:46:12.579Z,1003.25
2017-11-20T00:47:18.710Z,1003.35
2017-11-20T00:48:24.897Z,1003.39
2017-11-20T00:49:30.994Z,1003.26
2017-11-20T00:50:37.275Z,1003.20
2017-11-20T00:51:43.229Z,1003.40
2017-11-20T00:52:49.365Z,1003.37
2017-11-20T00:53:55.497Z,1003.38
2017-11-20T00:55:01.959Z,1003.31
2017-11-20T00:56:07.856Z,1003.36
2017-11-20T00:57:13.908Z,1003.30
2017-11-20T00:58:20.015Z,1003.24
2017-11-20T00:59:26.145Z,1003.28
2017-11-20T01:00:32.373Z,1003.32
2017-11-20T01:01:38.408Z,1003.34
2017-11-20T01:02:44.543Z,1003.43
2017-11-20T01:03:50.669Z,1003.24
2017-11-20T01:04:56.879Z,1003.34
2017-11-20T01:06:02.938Z,1003.29
2017-11-20T01:07:09.066Z,1003.35
2017-11-20T01:08:15.728Z,1003.42
2017-11-20T01:09:21.322Z,1003.53
2017-11-20T01:10:27.768Z,1003.41
2017-11-20T01:11:33.588Z,1003.39
2017-11-20T01:12:39.889Z,1003.43
2017-11-20T01:13:45.942Z,1003.51
2017-11-20T01:14:52.001Z,1003.60
2017-11-20T01:15:58.175Z,1003.55
2017-11-20T01:17:04.259Z,1003.47
2017-11-20T01:18:10.382Z,1003.59
2017-11-20T01:19:16.693Z,1003.44
2017-11-20T01:20:22.683Z,1003.42
2017-11-20T01:21:28.785Z,1003.47
2017-11-20T01:22:34.931Z,1003.43
2017-11-20T01:23:41.059Z,1003.45
2017-11-20T01:24:47.215Z,1003.43
2017-11-20T01:25:53.429Z,1003.43
2017-11-20T01:26:59.551Z,1003.48
2017-11-20T01:28:05.606Z,1003.48
2017-11-20T01:29:12.364Z,1003.47
2017-11-20T01:30:17.892Z,1003.47
2017-11-20T01:31:24.005Z,1003.46
2017-11-20T01:32:30.134Z,1003.51
2017-11-20T01:33:36.562Z,1003.56
2017-11-20T01:34:42.806Z,1003.50
2017-11-20T01:35:48.545Z,1003.58
2017-11-20T01:36:54.680Z,1003.50
2017-11-20T01:38:00.887Z,1003.54
2017-11-20T01:39:06.961Z,1003.51
2017-11-20T01:40:13.442Z,1003.47
2017-11-20T01:41:19.233Z,1003.55
2017-11-20T01:42:25.366Z,1003.43
2017-11-20T01:43:31.500Z,1003.41
2017-11-20T01:44:37.715Z,1003.52
2017-11-20T01:45:43.837Z,1003.58
2017-11-20T01:46:49.990Z,1003.63
2017-11-20T01:47:56.730Z,1003.78
2017-11-20T01:49:02.366Z,1003.59
2017-11-20T01:50:08.868Z,1003.64
2017-11-20T01:51:14.465Z,1003.59
2017-11-20T01:52:20.604Z,1003.38
2017-11-20T01:53:26.925Z,1003.45
2017-11-20T01:54:32.945Z,1003.38
2017-11-20T01:55:39.040Z,1003.51
2017-11-20T01:56:45.320Z,1003.37
2017-11-20T01:57:51.294Z,1003.45
2017-11-20T01:58:57.425Z,1003.47
2017-11-20T02:00:03.586Z,1003.50
2017-11-20T02:01:09.703Z,1003.60
2017-11-20T02:02:15.908Z,1003.58
2017-11-20T02:03:21.978Z,1003.45
2017-11-20T02:04:28.132Z,1003.55
2017-11-20T02:05:34.280Z,1003.58
2017-11-20T02:06:40.405Z,1003.58
2017-11-20T02:07:46.539Z,1003.57
2017-11-20T02:08:52.671Z,1003.52
2017-11-20T02:09:58.832Z,1003.48
2017-11-20T02:11:05.081Z,1003.71
2017-11-20T02:12:11.234Z,1003.75
2017-11-20T02:13:17.313Z,1003.70
2017-11-20T02:14:23.361Z,1003.63
2017-11-20T02:15:29.696Z,1003.47
2017-11-20T02:16:35.631Z,1003.53
2017-11-20T02:17:42.325Z,1003.46
2017-11-20T02:18:48.040Z,1003.57
2017-11-20T02:19:54.049Z,1003.53
2017-11-20T02:21:00.168Z,1003.29
2017-11-20T02:22:06.315Z,1003.31
2017-11-20T02:23:12.421Z,1003.32
2017-11-20T02:24:18.552Z,1003.16
2017-11-20T02:25:24.860Z,1003.38
2017-11-20T02:26:30.820Z,1003.40
2017-11-20T02:27:37.440Z,1003.38
2017-11-20T02:28:43.079Z,1003.35
2017-11-20T02:29:49.235Z,1003.27
2017-11-20T02:30:55.500Z,1003.29
2017-11-20T02:32:01.477Z,1003.40
2017-11-20T02:33:08.125Z,1003.33
2017-11-20T02:34:13.756Z,1003.40
2017-11-20T02:35:19.908Z,1003.41
2017-11-20T02:36:26.168Z,1003.37
2017-11-20T02:37:32.334Z,1003.39
2017-11-20T02:38:38.390Z,1003.33
2017-11-20T02:39:44.432Z,1003.25
2017-11-20T02:40:50.595Z,1003.29
2017-11-20T02:41:57.657Z,1003.31
2017-11-20T02:43:02.959Z,1003.30
2017-11-20T02:44:09.038Z,1003.21
2017-11-20T02:45:15.083Z,1003.32
2017-11-20T02:46:21.198Z,1003.07
2017-11-20T02:47:27.458Z,1003.12
2017-11-20T02:48:33.609Z,1003.05
2017-11-20T02:49:39.691Z,1003.03
2017-11-20T02:50:45.763Z,1003.12
2017-11-20T02:51:51.852Z,1003.18
2017-11-20T02:52:58.112Z,1003.31
2017-11-20T02:54:04.190Z,1003.32
2017-11-20T02:55:10.269Z,1003.21
2017-11-20T02:56:16.392Z,1003.24
2017-11-20T02:57:22.546Z,1003.17
2017-11-20T02:58:28.769Z,1003.26
2017-11-20T02:59:34.841Z,1003.32
2017-11-20T03:00:41.072Z,1003.22
2017-11-20T03:01:47.002Z,1002.92
2017-11-20T03:02:53.128Z,1003.24
2017-11-20T03:03:59.250Z,1003.29
2017-11-20T03:05:05.428Z,1003.22
2017-11-20T03:06:11.546Z,1003.27
2017-11-20T03:07:17.655Z,1003.41
2017-11-20T03:08:23.846Z,1003.36
2017-11-20T03:09:29.897Z,1003.31
2017-11-20T03:10:36.029Z,1003.26
2017-11-20T03:11:42.219Z,1003.29
2017-11-20T03:12:48.763Z,1003.16
2017-11-20T03:13:54.472Z,1003.22
2017-11-20T03:15:00.533Z,1003.13
2017-11-20T03:16:06.705Z,1003.15
2017-11-20T03:17:12.928Z,1003.03
2017-11-20T03:18:18.907Z,1003.28
2017-11-20T03:19:25.052Z,1003.33
2017-11-20T03:20:31.231Z,1003.29
2017-11-20T03:21:37.262Z,1003.32
2017-11-20T03:22:43.414Z,1003.32
2017-11-20T03:23:49.568Z,1003.26
2017-11-20T03:24:55.709Z,1003.38
2017-11-20T03:26:01.792Z,1003.36
2017-11-20T03:27:07.907Z,1003.31
2017-11-20T03:28:13.994Z,1003.30
2017-11-20T03:29:20.283Z,1003.31
2017-11-20T03:30:26.287Z,1003.24
2017-11-20T03:31:32.419Z,1003.28
2017-11-20T03:32:38.668Z,1003.34
2017-11-20T03:33:44.613Z,1003.28
2017-11-20T03:34:50.836Z,1003.23
2017-11-20T03:35:56.896Z,1003.25
2017-11-20T03:37:03.070Z,1003.19
2017-11-20T03:38:09.126Z,1003.18
2017-11-20T03:39:15.264Z,1003.19
2017-11-20T03:40:21.615Z,1003.25
2017-11-20T03:41:28.586Z,1003.10
2017-11-20T03:42:33.714Z,1003.21
2017-11-20T03:43:39.744Z,1003.20
2017-11-20T03:44:45.920Z,1003.28
2017-11-20T03:45:53.014Z,1003.26
2017-11-20T03:46:58.220Z,1003.27
2017-11-20T03:48:04.824Z,1003.20
2017-11-20T03:49:10.492Z,1003.23
2017-11-20T03:50:16.755Z,1003.27
2017-11-20T03:51:22.722Z,1003.24
2017-11-20T03:52:28.765Z,1003.11
2017-11-20T03:53:34.897Z,1003.30
2017-11-20T03:54:41.009Z,1003.30
2017-11-20T03:55:47.411Z,1003.26
2017-11-20T03:56:53.278Z,1003.07
2017-11-20T03:57:59.495Z,1003.13
2017-11-20T03:59:05.539Z,1003.07
2017-11-20T04:00:11.662Z,1002.92
2017-11-20T04:01:17.795Z,1002.94
2017-11-20T04:02:23.885Z,1003.24
2017-11-20T04:03:30.021Z,1003.20
2017-11-20T04:04:36.226Z,1003.01
2017-11-20T04:05:42.395Z,1003.13
2017-11-20T04:06:48.438Z,1003.17
2017-11-20T04:07:54.584Z,1003.13
2017-11-20T04:09:00.736Z,1003.07
2017-11-20T04:10:06.885Z,1003.10
2017-11-20T04:11:13.463Z,1003.03
2017-11-20T04:12:19.090Z,1002.99
2017-11-20T04:13:25.306Z,1002.79
2017-11-20T04:14:31.302Z,1003.11
2017-11-20T04:15:37.454Z,1003.13
2017-11-20T04:16:43.599Z,1003.07
2017-11-20T04:17:49.714Z,1003.12
2017-11-20T04:18:55.884Z,1003.03
2017-11-20T04:20:02.050Z,1003.08
2017-11-20T04:21:08.087Z,1003.09
2017-11-20T04:22:14.241Z,1003.07
2017-11-20T04:23:20.464Z,1003.03
2017-11-20T04:24:26.641Z,1002.88
2017-11-20T04:25:32.626Z,1003.15
2017-11-20T04:26:38.816Z,1002.94
2017-11-20T04:27:44.881Z,1003.21
2017-11-20T04:28:51.040Z,1002.90
2017-11-20T04:29:57.211Z,1003.02
2017-11-20T04:31:03.249Z,1003.00
2017-11-20T04:32:09.907Z,1003.00
2017-11-20T04:33:15.475Z,1003.02
2017-11-20T04:34:21.664Z,1003.20
2017-11-20T04:35:27.770Z,1002.83
2017-11-20T04:36:33.865Z,1002.87
2017-11-20T04:37:39.995Z,1002.91
2017-11-20T04:38:46.273Z,1003.02
2017-11-20T04:39:52.349Z,1002.92
2017-11-20T04:40:58.590Z,1002.87
2017-11-20T04:42:04.522Z,1002.91
2017-11-20T04:43:10.671Z,1002.92
2017-11-20T04:44:17.438Z,1002.81
2017-11-20T04:45:23.029Z,1002.76
2017-11-20T04:46:29.051Z,1002.97
2017-11-20T04:47:35.177Z,1002.95
2017-11-20T04:48:41.351Z,1002.75
2017-11-20T04:49:47.507Z,1002.86
2017-11-20T04:50:53.915Z,1002.90
2017-11-20T04:51:59.702Z,1003.01
2017-11-20T04:53:05.857Z,1003.09
2017-11-20T04:54:11.981Z,1002.99
2017-11-20T04:55:18.131Z,1003.01
2017-11-20T04:56:24.605Z,1002.96
2017-11-20T04:57:30.542Z,1003.00
2017-11-20T04:58:36.511Z,1003.05
2017-11-20T04:59:42.736Z,1003.00
2017-11-20T05:00:48.874Z,1003.07
2017-11-20T05:01:54.967Z,1002.91
2017-11-20T05:03:01.039Z,1002.94
2017-11-20T05:04:07.178Z,1003.03
2017-11-20T05:05:13.390Z,1003.07
2017-11-20T05:06:19.447Z,1003.00
2017-11-20T05:07:25.694Z,1002.95
2017-11-20T05:08:32.420Z,1003.03
2017-11-20T05:09:37.830Z,1002.96
2017-11-20T05:10:44.004Z,1003.03
2017-11-20T05:11:50.091Z,1003.13
2017-11-20T05:12:56.234Z,1003.05
2017-11-20T05:14:02.426Z,1003.17
2017-11-20T05:15:08.571Z,1003.28
2017-11-20T05:16:14.640Z,1003.17
2017-11-20T05:17:20.853Z,1003.17
2017-11-20T05:18:26.925Z,1003.17
2017-11-20T05:19:33.075Z,1003.22
2017-11-20T05:20:39.820Z,1003.19
2017-11-20T05:21:45.508Z,1003.14
2017-11-20T05:22:51.527Z,1003.22
2017-11-20T05:23:57.550Z,1003.26
2017-11-20T05:25:04.037Z,1003.32
2017-11-20T05:26:10.136Z,1003.21
2017-11-20T05:27:16.539Z,1003.19
2017-11-20T05:28:22.597Z,1003.13
2017-11-20T05:29:28.235Z,1003.18
2017-11-20T05:30:34.410Z,1003.18
2017-11-20T05:31:40.531Z,1003.12
2017-11-20T05:32:46.581Z,1003.21
2017-11-20T05:33:52.702Z,1003.12
2017-11-20T05:34:58.895Z,1003.16
2017-11-20T05:36:04.974Z,1003.10
2017-11-20T05:37:11.090Z,1003.14
2017-11-20T05:38:17.236Z,1003.08
2017-11-20T05:39:23.460Z,1003.24
2017-11-20T05:40:29.553Z,1003.18
2017-11-20T05:41:35.763Z,1003.18
2017-11-20T05:42:41.738Z,1003.23
2017-11-20T05:43:48.411Z,1003.13
2017-11-20T05:44:54.051Z,1003.18
2017-11-20T05:46:00.138Z,1003.21
2017-11-20T05:47:06.824Z,1003.20
2017-11-20T05:48:12.417Z,1003.15
2017-11-20T05:49:18.472Z,1003.23
2017-11-20T05:50:24.661Z,1003.19
2017-11-20T05:51:31.269Z,1003.28
2017-11-20T05:52:36.839Z,1003.19
2017-11-20T05:53:43.118Z,1003.25
2017-11-20T05:54:49.174Z,1003.22
2017-11-20T05:55:55.264Z,1003.15
2017-11-20T05:57:01.476Z,1003.26
2017-11-20T05:58:07.625Z,1003.19
2017-11-20T05:59:13.604Z,1003.18
2017-11-20T06:00:19.821Z,1003.32
2017-11-20T06:01:25.913Z,1003.31
2017-11-20T06:02:31.949Z,1003.32
2017-11-20T06:03:38.173Z,1003.16
2017-11-20T06:04:44.195Z,1003.30
2017-11-20T06:05:50.426Z,1003.34
2017-11-20T06:06:56.455Z,1003.25
2017-11-20T06:08:02.569Z,1003.36
2017-11-20T06:09:08.678Z,1003.29
2017-11-20T06:10:15.326Z,1003.31
2017-11-20T06:11:20.984Z,1003.25
2017-11-20T06:12:27.070Z,1003.21
2017-11-20T06:13:34.178Z,1003.25
2017-11-20T06:14:39.814Z,1003.21
2017-11-20T06:15:45.473Z,1003.24
2017-11-20T06:16:51.537Z,1003.23
2017-11-20T06:17:57.760Z,1003.25
2017-11-20T06:19:03.784Z,1003.26
2017-11-20T06:20:10.548Z,1003.17
2017-11-20T06:21:17.069Z,1003.25
2017-11-20T06:22:22.200Z,1003.23
2017-11-20T06:23:28.383Z,1003.28
2017-11-20T06:24:34.407Z,1003.26
2017-11-20T06:25:40.547Z,1003.25
2017-11-20T06:26:46.835Z,1003.26
2017-11-20T06:27:52.820Z,1003.23
2017-11-20T06:28:58.969Z,1003.20
2017-11-20T06:30:05.010Z,1003.24
2017-11-20T06:31:11.189Z,1003.29
2017-11-20T06:32:17.901Z,1003.34
2017-11-20T06:33:23.416Z,1003.37
2017-11-20T06:34:29.525Z,1003.35
2017-11-20T06:35:35.680Z,1003.32
2017-11-20T06:36:42.072Z,1003.38
2017-11-20T06:37:48.038Z,1003.31
2017-11-20T06:38:54.602Z,1003.44
2017-11-20T06:40:00.172Z,1003.37
2017-11-20T06:41:06.243Z,1003.34
2017-11-20T06:42:12.671Z,1003.36
2017-11-20T06:43:18.466Z,1003.38
2017-11-20T06:44:25.048Z,1003.45
2017-11-20T06:45:31.243Z,1003.38
2017-11-20T06:46:37.230Z,1003.42
2017-11-20T06:47:43.099Z,1003.42
2017-11-20T06:48:49.144Z,1003.46
2017-11-20T06:49:55.187Z,1003.44
2017-11-20T06:51:01.387Z,1003.42
2017-11-20T06:52:07.421Z,1003.37
2017-11-20T06:53:13.643Z,1003.43
2017-11-20T06:54:19.800Z,1003.46
2017-11-20T06:55:25.774Z,1003.53
2017-11-20T06:56:31.906Z,1003.54
2017-11-20T06:57:38.002Z,1003.60
2017-11-20T06:58:44.618Z,1003.54
2017-11-20T06:59:50.233Z,1003.59
2017-11-20T07:00:56.441Z,1003.57
2017-11-20T07:02:02.650Z,1003.55
2017-11-20T07:03:09.134Z,1003.64
2017-11-20T07:04:14.784Z,1003.67
2017-11-20T07:05:20.869Z,1003.61
2017-11-20T07:06:27.373Z,1003.60
2017-11-20T07:07:34.219Z,1003.67
2017-11-20T07:08:39.275Z,1003.77
2017-11-20T07:09:45.844Z,1003.72
2017-11-20T07:10:51.663Z,1003.82
2017-11-20T07:11:57.543Z,1003.76
2017-11-20T07:13:03.759Z,1003.80
2017-11-20T07:14:09.834Z,1003.83
2017-11-20T07:15:15.909Z,1003.80
2017-11-20T07:16:22.060Z,1003.83
2017-11-20T07:17:28.152Z,1003.78
2017-11-20T07:18:34.331Z,1003.81
2017-11-20T07:19:40.385Z,1003.81
2017-11-20T07:20:46.529Z,1003.83
2017-11-20T07:21:52.658Z,1003.83
2017-11-20T07:22:58.744Z,1003.76
2017-11-20T07:24:04.865Z,1003.75
2017-11-20T07:25:10.992Z,1003.83
2017-11-20T07:26:17.443Z,1003.81
2017-11-20T07:27:23.755Z,1003.76
2017-11-20T07:28:29.459Z,1003.67
2017-11-20T07:29:36.123Z,1003.67
2017-11-20T07:30:41.590Z,1003.74
2017-11-20T07:31:47.939Z,1003.73
2017-11-20T07:32:53.885Z,1003.67
2017-11-20T07:33:59.946Z,1003.61
2017-11-20T07:35:06.165Z,1003.67
2017-11-20T07:36:12.604Z,1003.69
2017-11-20T07:37:18.390Z,1003.75
2017-11-20T07:38:24.549Z,1003.72
2017-11-20T07:39:31.046Z,1003.73
2017-11-20T07:40:36.683Z,1003.63
2017-11-20T07:41:42.828Z,1003.63
2017-11-20T07:42:49.015Z,1003.67
2017-11-20T07:43:55.067Z,1003.71
2017-11-20T07:45:01.185Z,1003.65
2017-11-20T07:46:07.809Z,1003.64
2017-11-20T07:47:13.986Z,1003.69
2017-11-20T07:48:19.672Z,1003.68
2017-11-20T07:49:25.746Z,1003.62
2017-11-20T07:50:31.810Z,1003.70
2017-11-20T07:51:37.983Z,1003.69
2017-11-20T07:52:44.108Z,1003.75
2017-11-20T07:53:50.330Z,1003.73
2017-11-20T07:54:56.399Z,1003.73
2017-11-20T07:56:03.035Z,1003.78
2017-11-20T07:57:09.214Z,1003.73
2017-11-20T07:58:15.425Z,1003.79
2017-11-20T07:59:21.583Z,1003.78
2017-11-20T08:00:27.468Z,1003.74
2017-11-20T08:01:33.120Z,1003.70
2017-11-20T08:02:39.434Z,1003.78
2017-11-20T08:03:45.479Z,1003.68
2017-11-20T08:04:51.975Z,1003.77
2017-11-20T08:05:58.118Z,1003.74
2017-11-20T08:07:03.782Z,1003.82
2017-11-20T08:08:10.497Z,1003.77
2017-11-20T08:09:16.131Z,1003.82
2017-11-20T08:10:22.724Z,1003.72
2017-11-20T08:11:28.262Z,1003.80
2017-11-20T08:12:34.426Z,1003.77
2017-11-20T08:13:40.568Z,1003.78
2017-11-20T08:14:46.638Z,1003.88
2017-11-20T08:15:52.770Z,1003.83
2017-11-20T08:16:59.093Z,1003.83
2017-11-20T08:18:05.034Z,1003.81
2017-11-20T08:19:11.801Z,1003.88
2017-11-20T08:20:17.369Z,1003.91
2017-11-20T08:21:23.439Z,1003.84
2017-11-20T08:22:29.683Z,1003.95
2017-11-20T08:23:36.305Z,1003.84
2017-11-20T08:24:42.453Z,1003.92
2017-11-20T08:25:47.962Z,1003.96
2017-11-20T08:26:55.224Z,1003.93
2017-11-20T08:28:00.907Z,1003.86
2017-11-20T08:29:06.957Z,1003.87
2017-11-20T08:30:13.032Z,1003.84
2017-11-20T08:31:18.635Z,1003.86
2017-11-20T08:32:24.838Z,1003.91
2017-11-20T08:33:30.979Z,1003.85
2017-11-20T08:34:37.131Z,1003.94
2017-11-20T08:35:43.181Z,1003.79
2017-11-20T08:36:49.838Z,1003.91
2017-11-20T08:37:56.002Z,1003.84
2017-11-20T08:39:01.630Z,1003.86
2017-11-20T08:40:07.722Z,1003.84
2017-11-20T08:41:13.863Z,1003.84
2017-11-20T08:42:20.100Z,1003.85
2017-11-20T08:43:26.240Z,1003.87
2017-11-20T08:44:32.291Z,1003.91
2017-11-20T08:45:38.952Z,1003.90
2017-11-20T08:46:44.566Z,1003.92
2017-11-20T08:47:50.720Z,1003.84
2017-11-20T08:48:56.833Z,1003.90
2017-11-20T08:50:02.978Z,1003.90
2017-11-20T08:51:09.261Z,1003.93
2017-11-20T08:52:15.359Z,1003.89
2017-11-20T08:53:21.934Z,1003.86
2017-11-20T08:54:27.546Z,1003.86
2017-11-20T08:55:34.201Z,1003.99
2017-11-20T08:56:39.847Z,1003.93
2017-11-20T08:57:46.174Z,1003.97
2017-11-20T08:58:52.146Z,1003.98
2017-11-20T08:59:58.305Z,1003.98
2017-11-20T09:01:04.481Z,1003.99
2017-11-20T09:02:11.367Z,1004.02
2017-11-20T09:03:17.264Z,1004.02
2017-11-20T09:04:23.496Z,1004.00
2017-11-20T09:05:29.035Z,1004.00
2017-11-20T09:06:35.180Z,1004.03
2017-11-20T09:07:41.373Z,1003.98
2017-11-20T09:08:47.580Z,1004.02
2017-11-20T09:09:53.730Z,1004.03
2017-11-20T09:10:59.882Z,1003.98
2017-11-20T09:12:06.217Z,1004.05
2017-11-20T09:13:12.183Z,1003.92
2017-11-20T09:14:18.338Z,1003.91
2017-11-20T09:15:24.428Z,1003.94
2017-11-20T09:16:31.078Z,1003.92
2017-11-20T09:17:37.928Z,1003.99
2017-11-20T09:18:42.885Z,1003.91
2017-11-20T09:19:49.022Z,1003.81
2017-11-20T09:20:55.243Z,1003.83
2017-11-20T09:22:01.319Z,1003.82
2017-11-20T09:23:08.179Z,1003.93
2017-11-20T09:24:13.635Z,1003.74
2017-11-20T09:25:19.851Z,1003.86
2017-11-20T09:26:26.452Z,1003.82
2017-11-20T09:27:32.102Z,1003.77
2017-11-20T09:28:38.328Z,1003.71
2017-11-20T09:29:44.394Z,1003.77
2017-11-20T09:30:50.631Z,1003.70
2017-11-20T09:31:56.859Z,1003.83
2017-11-20T09:33:02.871Z,1003.82
2017-11-20T09:34:09.160Z,1003.79
2017-11-20T09:35:15.235Z,1003.72
2017-11-20T09:36:21.832Z,1003.68
2017-11-20T09:37:27.555Z,1003.78
2017-11-20T09:38:33.638Z,1003.84
2017-11-20T09:39:39.842Z,1003.80
2017-11-20T09:40:46.509Z,1003.77
2017-11-20T09:41:52.116Z,1003.78
2017-11-20T09:42:59.211Z,1003.79
2017-11-20T09:44:04.457Z,1003.74
2017-11-20T09:45:10.599Z,1003.72
2017-11-20T09:46:16.857Z,1003.74
2017-11-20T09:47:23.080Z,1003.80
2017-11-20T09:48:29.682Z,1003.82
2017-11-20T09:49:35.727Z,1003.76
2017-11-20T09:50:41.454Z,1003.64
2017-11-20T09:51:48.196Z,1003.75
2017-11-20T09:52:53.753Z,1003.58
2017-11-20T09:54:00.424Z,1003.66
2017-11-20T09:55:06.062Z,1003.71
2017-11-20T09:56:12.796Z,1003.67
2017-11-20T09:57:18.967Z,1003.71
2017-11-20T09:58:24.541Z,1003.68
2017-11-20T09:59:30.665Z,1003.70
2017-11-20T10:00:36.920Z,1003.66
2017-11-20T10:01:43.072Z,1003.54
2017-11-20T10:02:49.733Z,1003.70
2017-11-20T10:03:55.330Z,1003.45
2017-11-20T10:05:01.465Z,1003.57
2017-11-20T10:06:07.617Z,1003.60
2017-11-20T10:07:13.905Z,1003.57
2017-11-20T10:08:20.158Z,1003.67
2017-11-20T10:09:26.719Z,1003.55
2017-11-20T10:10:32.354Z,1003.69
2017-11-20T10:11:38.434Z,1003.61
2017-11-20T10:12:44.588Z,1003.70
2017-11-20T10:13:51.530Z,1003.63
2017-11-20T10:14:56.921Z,1003.67
2017-11-20T10:16:03.648Z,1003.57
2017-11-20T10:17:09.365Z,1003.54
2017-11-20T10:18:15.975Z,1003.64
2017-11-20T10:19:21.621Z,1003.52
2017-11-20T10:20:28.436Z,1003.51
2017-11-20T10:21:34.007Z,1003.59
2017-11-20T10:22:40.097Z,1003.56
2017-11-20T10:23:46.316Z,1003.54
2017-11-20T10:24:52.460Z,1003.48
2017-11-20T10:25:58.787Z,1003.47
2017-11-20T10:27:04.789Z,1003.47
2017-11-20T10:28:11.082Z,1003.42
2017-11-20T10:29:17.159Z,1003.39
2017-11-20T10:30:23.327Z,1003.34
2017-11-20T10:31:29.562Z,1003.36
2017-11-20T10:32:35.663Z,1003.40
2017-11-20T10:33:42.046Z,1003.38
2017-11-20T10:34:48.090Z,1003.46
2017-11-20T10:35:54.276Z,1003.42
2017-11-20T10:37:00.353Z,1003.39
2017-11-20T10:38:06.649Z,1003.30
2017-11-20T10:39:12.755Z,1003.21
2017-11-20T10:40:18.885Z,1003.21
2017-11-20T10:41:25.652Z,1003.27
2017-11-20T10:42:31.225Z,1003.27
2017-11-20T10:43:38.015Z,1003.15
2017-11-20T10:44:43.609Z,1003.35
2017-11-20T10:45:50.249Z,1003.39
2017-11-20T10:46:55.991Z,1003.39
2017-11-20T10:48:02.142Z,1003.31
2017-11-20T10:49:08.304Z,1003.32
2017-11-20T10:50:14.482Z,1003.34
2017-11-20T10:51:20.598Z,1003.40
2017-11-20T10:52:27.361Z,1003.34
2017-11-20T10:53:32.998Z,1003.30
2017-11-20T10:54:39.166Z,1003.29
2017-11-20T10:55:45.829Z,1003.28
2017-11-20T10:56:51.963Z,1003.14
2017-11-20T10:57:58.119Z,1003.09
2017-11-20T10:59:04.354Z,1003.21
2017-11-20T11:00:09.925Z,1003.04
2017-11-20T11:01:17.594Z,1002.96
2017-11-20T11:02:22.384Z,1003.08
2017-11-20T11:03:28.712Z,1002.93
2017-11-20T11:04:35.215Z,1002.93
2017-11-20T11:05:40.767Z,1003.11
2017-11-20T11:06:46.992Z,1002.93
2017-11-20T11:07:53.578Z,1002.83
2017-11-20T11:08:59.801Z,1002.88
2017-11-20T11:10:05.899Z,1002.87
2017-11-20T11:11:11.597Z,1002.88
2017-11-20T11:12:18.260Z,1002.83
2017-11-20T11:13:23.839Z,1002.68
2017-11-20T11:14:30.592Z,1002.69
2017-11-20T11:15:37.007Z,1002.72
2017-11-20T11:16:42.449Z,1002.66
2017-11-20T11:17:49.115Z,1002.63
2017-11-20T11:18:54.644Z,1002.52
2017-11-20T11:20:00.839Z,1002.57
2017-11-20T11:21:06.963Z,1002.50
2017-11-20T11:22:13.205Z,1002.50
2017-11-20T11:23:19.289Z,1002.45
2017-11-20T11:24:25.444Z,1002.46
2017-11-20T11:25:32.219Z,1002.50
2017-11-20T11:26:37.768Z,1002.53
2017-11-20T11:27:43.994Z,1002.41
2017-11-20T11:28:50.656Z,1002.42
2017-11-20T11:29:56.276Z,1002.30
2017-11-20T11:31:02.965Z,1002.41
2017-11-20T11:32:09.109Z,1002.35
2017-11-20T11:33:14.723Z,1002.25
2017-11-20T11:34:20.973Z,1002.27
2017-11-20T11:35:27.306Z,1002.21
2017-11-20T11:36:33.198Z,1002.18
2017-11-20T11:37:39.465Z,1002.15
2017-11-20T11:38:45.508Z,1002.31
2017-11-20T11:39:51.665Z,1002.21
2017-11-20T11:40:57.840Z,1002.25
2017-11-20T11:42:04.058Z,1002.22
2017-11-20T11:43:10.801Z,1002.23
2017-11-20T11:44:16.377Z,1002.25
2017-11-20T11:45:23.534Z,1002.18
2017-11-20T11:46:29.358Z,1002.08
2017-11-20T11:47:34.891Z,1002.04
2017-11-20T11:48:40.915Z,1002.07
2017-11-20T11:49:47.053Z,1002.09
2017-11-20T11:50:53.230Z,1002.05
2017-11-20T11:52:00.007Z,1002.14
2017-11-20T11:53:06.157Z,1002.07
2017-11-20T11:54:11.690Z,1002.04
2017-11-20T11:55:17.877Z,1001.98
2017-11-20T11:56:24.090Z,1001.97
2017-11-20T11:57:30.795Z,1002.06
2017-11-20T11:58:36.331Z,1002.01
2017-11-20T11:59:43.065Z,1001.95
2017-11-20T12:00:48.925Z,1002.03
2017-11-20T12:01:54.749Z,1001.91
2017-11-20T12:03:01.006Z,1001.93
2017-11-20T12:04:07.103Z,1001.97
2017-11-20T12:05:13.237Z,1002.00
2017-11-20T12:06:19.589Z,1002.00
2017-11-20T12:07:26.079Z,1002.05
2017-11-20T12:08:32.194Z,1001.86
2017-11-20T12:09:38.015Z,1001.87
2017-11-20T12:10:44.101Z,1001.89
2017-11-20T12:11:50.499Z,1001.94
2017-11-20T12:12:56.905Z,1001.91
2017-11-20T12:14:02.545Z,1001.83
2017-11-20T12:15:08.634Z,1001.88
2017-11-20T12:16:14.820Z,1001.84
2017-11-20T12:17:20.942Z,1001.74
2017-11-20T12:18:27.151Z,1001.70
2017-11-20T12:19:33.888Z,1001.59
2017-11-20T12:20:40.039Z,1001.70
2017-11-20T12:21:45.582Z,1001.78
2017-11-20T12:22:52.272Z,1001.74
2017-11-20T12:23:57.980Z,1001.78
2017-11-20T12:25:04.577Z,1001.73
2017-11-20T12:26:10.171Z,1001.58
2017-11-20T12:27:16.345Z,1001.50
2017-11-20T12:28:22.981Z,1001.52
2017-11-20T12:29:29.353Z,1001.56
2017-11-20T12:30:34.889Z,1001.59
2017-11-20T12:31:40.939Z,1001.53
2017-11-20T12:32:47.117Z,1001.58
2017-11-20T12:33:53.265Z,1001.62
2017-11-20T12:34:59.934Z,1001.64
2017-11-20T12:36:06.086Z,1001.49
2017-11-20T12:37:12.418Z,1001.51
2017-11-20T12:38:17.813Z,1001.46
2017-11-20T12:39:24.534Z,1001.49
2017-11-20T12:40:30.603Z,1001.44
2017-11-20T12:41:36.844Z,1001.36
2017-11-20T12:42:43.939Z,1001.40
2017-11-20T12:43:49.142Z,1001.31
2017-11-20T12:44:54.799Z,1001.30
2017-11-20T12:46:01.004Z,1001.32
2017-11-20T12:47:07.102Z,1001.32
2017-11-20T12:48:13.307Z,1001.33
2017-11-20T12:49:19.389Z,1001.08
2017-11-20T12:50:26.119Z,1001.25
2017-11-20T12:51:32.100Z,1001.22
2017-11-20T12:52:37.867Z,1001.25
2017-11-20T12:53:43.914Z,1001.16
2017-11-20T12:54:50.214Z,1001.32
2017-11-20T12:55:56.223Z,1001.25
2017-11-20T12:57:02.519Z,1001.14
2017-11-20T12:58:08.609Z,1001.26
2017-11-20T12:59:14.743Z,1001.20
2017-11-20T13:00:20.842Z,1001.19
2017-11-20T13:01:27.560Z,1001.26
2017-11-20T13:02:33.727Z,1001.06
2017-11-20T13:03:39.364Z,1001.24
2017-11-20T13:04:45.459Z,1001.23
2017-11-20T13:05:52.170Z,1001.19
2017-11-20T13:06:57.811Z,1001.09
2017-11-20T13:08:03.959Z,1001.08
2017-11-20T13:09:10.620Z,1001.11
2017-11-20T13:10:16.857Z,1001.08
2017-11-20T13:11:22.415Z,1001.13
2017-11-20T13:12:28.693Z,1001.07
2017-11-20T13:13:34.717Z,1000.97
2017-11-20T13:14:41.037Z,1001.04
2017-11-20T13:15:47.122Z,1001.14
2017-11-20T13:16:53.355Z,1001.04
2017-11-20T13:17:59.947Z,1001.14
2017-11-20T13:19:05.577Z,1000.94
2017-11-20T13:20:11.794Z,1000.90